createdAt,value
2022-11-20T00:02:12.988Z,84.01
2022-11-20T00:04:39.806Z,84.55
2022-11-20T00:07:06.688Z,83.89
2022-11-20T00:09:33.597Z,84.76
2022-11-20T00:12:00.547Z,86.04
2022-11-20T00:14:27.454Z,84.33
2022-11-20T00:16:54.264Z,84.72
2022-11-20T00:19:21.222Z,83.77
2022-11-20T00:21:48.520Z,85.58
2022-11-20T00:24:15.314Z,85.09
2022-11-20T00:26:42.152Z,86.33
2022-11-20T00:29:10.593Z,84.93
2022-11-20T00:31:37.717Z,85.73
2022-11-20T00:34:04.628Z,85.58
2022-11-20T00:36:35.413Z,84.39
2022-11-20T00:39:02.678Z,83.99
2022-11-20T00:41:30.820Z,85.02
2022-11-20T00:43:58.045Z,85.63
2022-11-20T00:46:28.213Z,85.73
2022-11-20T00:48:55.574Z,85.20
2022-11-20T00:51:25.069Z,86.50
2022-11-20T00:53:52.398Z,86.31
2022-11-20T00:56:20.771Z,85.26
2022-11-20T00:58:49.157Z,85.13
2022-11-20T01:01:26.907Z,85.63
2022-11-20T01:03:55.780Z,83.81
2022-11-20T01:06:24.930Z,84.02
2022-11-20T01:08:53.999Z,84.76
2022-11-20T01:11:24.347Z,85.52
2022-11-20T01:13:53.320Z,84.58
2022-11-20T01:16:24.780Z,83.73
2022-11-20T01:18:54.881Z,86.26
2022-11-20T01:21:27.218Z,85.09
2022-11-20T01:23:54.363Z,85.72
2022-11-20T01:26:24.614Z,85.76
2022-11-20T01:28:51.971Z,85.78
2022-11-20T01:31:31.273Z,85.15
2022-11-20T01:34:01.203Z,86.39
2022-11-20T01:36:31.439Z,87.90
2022-11-20T01:39:04.915Z,87.65
2022-11-20T01:41:33.476Z,87.06
2022-11-20T01:44:00.833Z,87.04
2022-11-20T01:46:28.421Z,87.77
2022-11-20T01:49:15.685Z,87.53
2022-11-20T01:51:48.443Z,87.68
2022-11-20T01:54:29.706Z,88.21
2022-11-20T01:56:59.110Z,88.52
2022-11-20T01:59:27.478Z,87.88
2022-11-20T02:01:54.925Z,88.33
2022-11-20T02:04:23.776Z,88.38
2022-11-20T02:06:58.342Z,87.92
2022-11-20T02:09:25.229Z,88.27
2022-11-20T02:11:53.004Z,87.18
2022-11-20T02:14:20.317Z,89.05
2022-11-20T02:16:48.909Z,89.15
2022-11-20T02:19:31.167Z,88.75
2022-11-20T02:22:09.216Z,88.13
2022-11-20T02:24:36.218Z,89.44
2022-11-20T02:27:07.768Z,89.82
2022-11-20T02:29:48.209Z,90.29
2022-11-20T02:32:33.521Z,87.96
2022-11-20T02:35:27.597Z,87.80
2022-11-20T02:37:56.660Z,89.02
2022-11-20T02:40:24.937Z,89.02
2022-11-20T02:42:58.808Z,89.24
2022-11-20T02:45:26.422Z,86.59
2022-11-20T02:47:54.036Z,86.89
2022-11-20T02:50:21.681Z,88.02
2022-11-20T02:52:48.474Z,87.68
2022-11-20T02:55:15.471Z,87.20
2022-11-20T02:57:42.607Z,87.53
2022-11-20T03:00:10.231Z,87.40
2022-11-20T03:02:37.010Z,86.92
2022-11-20T03:05:04.225Z,86.55
2022-11-20T03:07:30.999Z,87.16
2022-11-20T03:09:57.925Z,86.83
2022-11-20T03:12:24.705Z,87.65
2022-11-20T03:14:53.293Z,87.11
2022-11-20T03:17:20.564Z,87.99
2022-11-20T03:19:47.565Z,87.55
2022-11-20T03:22:14.712Z,88.22
2022-11-20T03:24:41.493Z,89.02
2022-11-20T03:27:08.303Z,89.06
2022-11-20T03:29:36.535Z,89.18
2022-11-20T03:32:03.684Z,87.65
2022-11-20T03:34:30.529Z,88.59
2022-11-20T03:36:57.325Z,87.48
2022-11-20T03:39:24.210Z,88.62
2022-11-20T03:41:51.144Z,89.38
2022-11-20T03:44:18.002Z,89.15
2022-11-20T03:46:44.843Z,89.02
2022-11-20T03:49:11.641Z,87.37
2022-11-20T03:51:38.670Z,88.10
2022-11-20T03:54:09.713Z,87.19
2022-11-20T03:56:38.739Z,87.48
2022-11-20T03:59:06.857Z,87.58
2022-11-20T04:01:36.907Z,87.80
2022-11-20T04:04:04.777Z,88.38
2022-11-20T04:06:36.091Z,88.57
2022-11-20T04:09:03.689Z,87.88
2022-11-20T04:11:33.667Z,88.28
2022-11-20T04:14:04.178Z,89.07
2022-11-20T04:16:36.411Z,87.97
2022-11-20T04:19:06.367Z,88.48
2022-11-20T04:21:33.280Z,88.69
2022-11-20T04:24:00.317Z,87.97
2022-11-20T04:26:29.715Z,88.70
2022-11-20T04:28:57.530Z,88.52
2022-11-20T04:31:30.280Z,88.28
2022-11-20T04:34:01.878Z,88.55
2022-11-20T04:36:30.054Z,88.33
2022-11-20T04:38:59.087Z,87.86
2022-11-20T04:41:29.860Z,87.88
2022-11-20T04:43:59.513Z,87.97
2022-11-20T04:46:28.387Z,87.98
2022-11-20T04:48:55.216Z,88.24
2022-11-20T04:51:22.165Z,88.45
2022-11-20T04:53:49.136Z,88.37
2022-11-20T04:56:16.071Z,88.41
2022-11-20T04:58:42.983Z,88.88
2022-11-20T05:01:18.628Z,88.19
2022-11-20T05:03:46.390Z,87.90
2022-11-20T05:06:15.602Z,87.70
2022-11-20T05:08:42.601Z,87.52
2022-11-20T05:11:14.933Z,87.65
2022-11-20T05:13:42.424Z,87.55
2022-11-20T05:16:12.082Z,89.08
2022-11-20T05:18:40.813Z,88.44
2022-11-20T05:21:09.154Z,88.74
2022-11-20T05:23:36.773Z,88.15
2022-11-20T05:26:05.035Z,89.27
2022-11-20T05:28:33.267Z,89.08
2022-11-20T05:31:11.654Z,89.75
2022-11-20T05:33:41.233Z,90.02
2022-11-20T05:36:09.375Z,88.77
2022-11-20T05:38:36.197Z,89.52
2022-11-20T05:41:12.384Z,89.71
2022-11-20T05:43:41.469Z,88.24
2022-11-20T05:46:10.819Z,87.87
2022-11-20T05:48:39.351Z,87.29
2022-11-20T05:51:09.024Z,88.83
2022-11-20T05:53:37.256Z,89.26
2022-11-20T05:56:10.037Z,88.85
2022-11-20T05:58:37.406Z,88.93
2022-11-20T06:01:14.976Z,89.13
2022-11-20T06:03:42.966Z,89.00
2022-11-20T06:06:09.955Z,88.97
2022-11-20T06:08:36.679Z,88.99
2022-11-20T06:11:08.179Z,89.72
2022-11-20T06:13:39.186Z,89.63
2022-11-20T06:16:08.855Z,89.46
2022-11-20T06:18:35.687Z,90.61
2022-11-20T06:21:06.459Z,90.18
2022-11-20T06:23:34.910Z,90.98
2022-11-20T06:26:07.333Z,90.37
2022-11-20T06:28:35.176Z,90.18
2022-11-20T06:31:03.524Z,89.75
2022-11-20T06:33:30.824Z,89.94
2022-11-20T06:36:08.916Z,90.35
2022-11-20T06:38:45.491Z,90.15
2022-11-20T06:41:15.169Z,90.29
2022-11-20T06:43:42.559Z,90.15
2022-11-20T06:46:12.180Z,90.72
2022-11-20T06:48:38.964Z,90.54
2022-11-20T06:51:07.604Z,90.13
2022-11-20T06:53:35.384Z,91.89
2022-11-20T06:56:02.129Z,92.26
2022-11-20T06:58:30.334Z,92.77
2022-11-20T07:01:01.369Z,93.05
2022-11-20T07:03:28.339Z,92.61
2022-11-20T07:05:59.597Z,93.59
2022-11-20T07:08:26.829Z,92.99
2022-11-20T07:10:53.782Z,92.73
2022-11-20T07:13:20.519Z,92.58
2022-11-20T07:15:47.424Z,93.96
2022-11-20T07:18:14.146Z,93.46
2022-11-20T07:20:41.042Z,94.00
2022-11-20T07:23:07.797Z,93.91
2022-11-20T07:25:34.626Z,93.13
2022-11-20T07:28:01.995Z,92.31
2022-11-20T07:30:29.370Z,92.19
2022-11-20T07:32:57.744Z,91.69
2022-11-20T07:35:25.692Z,92.47
2022-11-20T07:37:52.650Z,92.16
2022-11-20T07:40:20.110Z,92.86
2022-11-20T07:42:51.336Z,92.94
2022-11-20T07:45:18.969Z,92.94
2022-11-20T07:47:45.819Z,92.26
2022-11-20T07:50:13.758Z,92.55
2022-11-20T07:52:40.775Z,92.05
2022-11-20T07:55:08.778Z,92.03
2022-11-20T07:57:35.590Z,91.92
2022-11-20T08:00:04.483Z,92.95
2022-11-20T08:02:40.893Z,92.60
2022-11-20T08:05:09.504Z,91.69
2022-11-20T08:07:41.059Z,92.06
2022-11-20T08:10:09.707Z,91.65
2022-11-20T08:12:36.881Z,91.95
2022-11-20T08:15:09.789Z,91.88
2022-11-20T08:17:39.786Z,92.19
2022-11-20T08:20:06.793Z,91.67
2022-11-20T08:22:33.723Z,91.98
2022-11-20T08:25:00.590Z,91.69
2022-11-20T08:27:27.442Z,90.68
2022-11-20T08:29:54.256Z,92.06
2022-11-20T08:32:21.073Z,90.84
2022-11-20T08:34:47.927Z,92.58
2022-11-20T08:37:14.761Z,92.49
2022-11-20T08:39:41.524Z,92.03
2022-11-20T08:42:09.230Z,91.88
2022-11-20T08:44:36.075Z,92.34
2022-11-20T08:47:02.919Z,91.27
2022-11-20T08:49:30.494Z,92.52
2022-11-20T08:51:58.463Z,91.66
2022-11-20T08:54:25.269Z,91.09
2022-11-20T08:56:52.152Z,90.86
2022-11-20T08:59:31.648Z,91.64
2022-11-20T09:02:05.819Z,91.05
2022-11-20T09:04:32.617Z,90.91
2022-11-20T09:07:01.338Z,91.63
2022-11-20T09:09:28.795Z,91.48
2022-11-20T09:11:55.671Z,90.87
2022-11-20T09:14:22.477Z,91.24
2022-11-20T09:16:49.309Z,91.48
2022-11-20T09:22:02.949Z,91.69
2022-11-20T09:24:29.720Z,90.41
2022-11-20T09:26:56.569Z,91.51
2022-11-20T09:29:23.676Z,91.21
2022-11-20T09:31:50.640Z,90.87
2022-11-20T09:34:17.907Z,91.09
2022-11-20T09:36:44.728Z,91.74
2022-11-20T09:39:11.631Z,91.14
2022-11-20T09:42:06.986Z,90.67
2022-11-20T09:44:46.653Z,91.96
2022-11-20T09:47:31.457Z,91.51
2022-11-20T09:50:16.822Z,91.29
2022-11-20T09:52:59.921Z,90.98
2022-11-20T09:55:27.274Z,91.87
2022-11-20T09:57:54.972Z,92.40
2022-11-20T10:00:21.771Z,92.11
2022-11-20T10:03:14.511Z,91.96
2022-11-20T10:05:50.986Z,92.62
2022-11-20T10:08:29.553Z,92.09
2022-11-20T10:11:08.624Z,92.14
2022-11-20T10:14:00.980Z,92.30
2022-11-20T10:16:50.917Z,91.69
2022-11-20T10:19:20.571Z,90.64
2022-11-20T10:21:59.903Z,91.48
2022-11-20T10:25:06.004Z,92.07
2022-11-20T10:27:44.859Z,92.23
2022-11-20T10:30:20.470Z,91.51
2022-11-20T10:32:52.174Z,92.46
2022-11-20T10:35:33.362Z,92.19
2022-11-20T10:38:03.106Z,92.52
2022-11-20T10:40:38.989Z,92.53
2022-11-20T10:43:20.329Z,92.17
2022-11-20T10:46:04.136Z,92.24
2022-11-20T10:48:32.879Z,91.93
2022-11-20T10:51:11.508Z,92.57
2022-11-20T10:53:38.268Z,92.03
2022-11-20T10:56:50.169Z,92.03
2022-11-20T10:59:47.588Z,91.61
2022-11-20T11:02:21.429Z,92.02
2022-11-20T11:04:53.359Z,91.43
2022-11-20T11:07:36.332Z,91.27
2022-11-20T11:10:17.681Z,91.08
2022-11-20T11:12:47.212Z,91.51
2022-11-20T11:15:26.112Z,91.72
2022-11-20T11:17:52.888Z,91.20
2022-11-20T11:20:25.568Z,91.20
2022-11-20T11:22:55.300Z,90.95
2022-11-20T11:25:34.020Z,91.33
2022-11-20T11:28:04.528Z,91.04
2022-11-20T11:30:42.731Z,89.65
2022-11-20T11:33:22.803Z,89.58
2022-11-20T11:35:55.312Z,90.46
2022-11-20T11:38:43.106Z,90.30
2022-11-20T11:41:19.975Z,90.20
2022-11-20T11:43:58.612Z,90.34
2022-11-20T11:46:36.123Z,89.96
2022-11-20T11:49:17.662Z,90.11
2022-11-20T11:52:02.686Z,88.31
2022-11-20T11:54:32.717Z,89.78
2022-11-20T11:57:13.243Z,89.29
2022-11-20T12:00:04.436Z,88.69
2022-11-20T12:02:34.121Z,88.68
2022-11-20T12:05:19.069Z,88.21
2022-11-20T12:08:12.857Z,88.32
2022-11-20T12:10:58.509Z,87.33
2022-11-20T12:13:28.246Z,88.17
2022-11-20T12:15:55.287Z,88.19
2022-11-20T12:18:23.608Z,88.39
2022-11-20T12:21:11.878Z,88.00
2022-11-20T12:24:09.927Z,89.28
2022-11-20T12:27:10.455Z,89.16
2022-11-20T12:29:49.188Z,88.78
2022-11-20T12:32:16.156Z,88.52
2022-11-20T12:34:54.277Z,89.72
2022-11-20T12:37:49.052Z,88.91
2022-11-20T12:40:34.211Z,89.51
2022-11-20T12:43:24.558Z,89.39
2022-11-20T12:46:19.432Z,89.41
2022-11-20T12:49:21.691Z,89.90
2022-11-20T12:52:07.972Z,89.98
2022-11-20T12:54:51.601Z,89.40
2022-11-20T12:57:39.870Z,89.78
2022-11-20T13:00:16.542Z,89.83
2022-11-20T13:03:08.134Z,89.57
2022-11-20T13:06:16.934Z,89.49
2022-11-20T13:08:57.622Z,89.57
2022-11-20T13:11:42.445Z,89.96
2022-11-20T13:14:44.152Z,89.83
2022-11-20T13:17:38.205Z,90.39
2022-11-20T13:20:13.581Z,90.14
2022-11-20T13:22:45.340Z,90.05
2022-11-20T13:25:23.992Z,90.28
2022-11-20T13:27:51.882Z,90.14
2022-11-20T13:30:22.001Z,90.02
2022-11-20T13:32:53.791Z,90.20
2022-11-20T13:35:27.589Z,89.96
2022-11-20T13:38:08.420Z,89.68
2022-11-20T13:40:39.702Z,89.67
2022-11-20T13:43:20.835Z,90.29
2022-11-20T13:46:03.446Z,89.69
2022-11-20T13:48:40.031Z,90.02
2022-11-20T13:51:29.025Z,89.83
2022-11-20T13:54:30.715Z,89.39
2022-11-20T13:57:03.624Z,89.08
2022-11-20T13:59:53.620Z,89.74
2022-11-20T14:02:23.900Z,88.84
2022-11-20T14:04:54.097Z,89.48
2022-11-20T14:07:26.075Z,89.37
2022-11-20T14:09:58.888Z,89.93
2022-11-20T14:12:35.508Z,90.01
2022-11-20T14:15:02.902Z,89.70
2022-11-20T14:17:30.487Z,89.56
2022-11-20T14:20:07.688Z,89.73
2022-11-20T14:22:35.157Z,89.54
2022-11-20T14:25:08.432Z,89.44
2022-11-20T14:27:40.259Z,89.35
2022-11-20T14:30:21.839Z,90.25
2022-11-20T14:32:50.629Z,90.29
2022-11-20T14:35:42.441Z,89.33
2022-11-20T14:38:15.232Z,89.31
2022-11-20T14:40:42.798Z,89.14
2022-11-20T14:43:22.224Z,89.67
2022-11-20T14:46:16.707Z,89.32
2022-11-20T14:48:50.503Z,89.16
2022-11-20T14:51:38.681Z,89.28
2022-11-20T14:54:20.946Z,89.17
2022-11-20T14:57:04.054Z,89.40
2022-11-20T14:59:36.151Z,89.51
2022-11-20T15:02:14.654Z,91.31
2022-11-20T15:04:58.434Z,90.58
2022-11-20T15:07:34.769Z,90.82
2022-11-20T15:10:12.723Z,91.19
2022-11-20T15:12:47.285Z,90.50
2022-11-20T15:15:22.175Z,91.04
2022-11-20T15:17:49.918Z,90.45
2022-11-20T15:20:18.604Z,90.84
2022-11-20T15:22:46.208Z,90.00
2022-11-20T15:25:16.166Z,90.53
2022-11-20T15:27:45.259Z,91.21
2022-11-20T15:30:19.000Z,91.54
2022-11-20T15:32:47.296Z,91.11
2022-11-20T15:35:15.842Z,92.53
2022-11-20T15:37:44.375Z,91.75
2022-11-20T15:40:13.627Z,92.75
2022-11-20T15:42:41.299Z,91.14
2022-11-20T15:45:08.865Z,89.79
2022-11-20T15:47:36.560Z,91.98
2022-11-20T15:50:05.559Z,91.50
2022-11-20T15:52:41.538Z,92.26
2022-11-20T15:55:12.979Z,91.22
2022-11-20T15:57:40.288Z,92.21
2022-11-20T16:00:09.190Z,92.74
2022-11-20T16:02:38.229Z,92.86
2022-11-20T16:05:11.172Z,92.72
2022-11-20T16:07:39.273Z,91.89
2022-11-20T16:10:07.211Z,90.88
2022-11-20T16:12:34.912Z,92.53
2022-11-20T16:15:01.896Z,92.15
2022-11-20T16:17:29.766Z,92.96
2022-11-20T16:19:57.979Z,91.29
2022-11-20T16:22:25.810Z,91.62
2022-11-20T16:24:56.793Z,92.00
2022-11-20T16:27:24.401Z,91.04
2022-11-20T16:29:52.058Z,91.94
2022-11-20T16:32:19.983Z,90.68
2022-11-20T16:34:47.646Z,89.94
2022-11-20T16:37:15.327Z,92.41
2022-11-20T16:39:43.103Z,93.25
2022-11-20T16:42:11.027Z,91.13
2022-11-20T16:44:38.706Z,90.87
2022-11-20T16:47:06.453Z,93.18
2022-11-20T16:49:34.887Z,93.53
2022-11-20T16:52:02.619Z,93.43
2022-11-20T16:54:31.755Z,94.32
2022-11-20T16:57:00.110Z,94.97
2022-11-20T16:59:27.495Z,93.14
2022-11-20T17:01:57.303Z,93.24
2022-11-20T17:04:25.738Z,93.54
2022-11-20T17:06:53.490Z,94.23
2022-11-20T17:09:21.242Z,93.64
2022-11-20T17:11:49.775Z,93.33
2022-11-20T17:14:17.657Z,94.16
2022-11-20T17:16:45.302Z,93.87
2022-11-20T17:19:13.123Z,93.81
2022-11-20T17:21:43.910Z,93.80
2022-11-20T17:24:13.464Z,92.57
2022-11-20T17:26:43.739Z,93.10
2022-11-20T17:29:19.274Z,93.31
2022-11-20T17:31:46.876Z,92.41
2022-11-20T17:34:15.806Z,93.04
2022-11-20T17:36:45.943Z,92.62
2022-11-20T17:39:15.523Z,92.66
2022-11-20T17:41:47.204Z,92.27
2022-11-20T17:44:15.036Z,94.71
2022-11-20T17:46:42.603Z,94.93
2022-11-20T17:49:11.787Z,93.70
2022-11-20T17:51:40.887Z,95.03
2022-11-20T17:54:08.585Z,94.84
2022-11-20T17:56:36.805Z,94.80
2022-11-20T17:59:09.707Z,94.91
2022-11-20T18:01:38.943Z,95.51
2022-11-20T18:04:07.018Z,96.12
2022-11-20T18:06:34.685Z,94.98
2022-11-20T18:09:04.630Z,94.93
2022-11-20T18:11:34.926Z,94.62
2022-11-20T18:14:04.412Z,94.52
2022-11-20T18:16:37.488Z,94.85
2022-11-20T18:19:05.087Z,94.71
2022-11-20T18:21:33.182Z,95.67
2022-11-20T18:24:00.768Z,94.75
2022-11-20T18:26:28.568Z,96.46
2022-11-20T18:28:56.853Z,96.70
2022-11-20T18:31:25.074Z,96.61
2022-11-20T18:33:54.310Z,96.75
2022-11-20T18:36:30.630Z,97.26
2022-11-20T18:38:59.988Z,97.30
2022-11-20T18:41:31.592Z,95.26
2022-11-20T18:44:00.080Z,95.60
2022-11-20T18:46:28.803Z,96.35
2022-11-20T18:49:05.191Z,96.40
2022-11-20T18:51:41.944Z,95.65
2022-11-20T18:54:09.987Z,96.06
2022-11-20T18:56:38.194Z,95.76
2022-11-20T18:59:08.404Z,97.11
2022-11-20T19:01:37.739Z,97.41
2022-11-20T19:04:10.564Z,97.25
2022-11-20T19:06:42.566Z,97.42
2022-11-20T19:09:13.647Z,97.32
2022-11-20T19:11:41.776Z,97.01
2022-11-20T19:14:11.266Z,96.62
2022-11-20T19:16:39.259Z,97.90
2022-11-20T19:19:07.611Z,98.45
2022-11-20T19:21:35.708Z,98.22
2022-11-20T19:24:05.308Z,98.24
2022-11-20T19:26:39.111Z,97.93
2022-11-20T19:29:09.605Z,98.53
2022-11-20T19:31:38.823Z,99.65
2022-11-20T19:34:06.406Z,99.02
2022-11-20T19:36:44.338Z,97.95
2022-11-20T19:39:13.253Z,96.82
2022-11-20T19:41:43.041Z,97.67
2022-11-20T19:44:16.732Z,99.05
2022-11-20T19:46:45.437Z,98.46
2022-11-20T19:49:20.876Z,98.43
2022-11-20T19:51:50.967Z,97.91
2022-11-20T19:54:18.856Z,98.39
2022-11-20T19:56:46.468Z,97.59
2022-11-20T19:59:15.338Z,97.13
2022-11-20T20:01:44.151Z,96.95
2022-11-20T20:04:13.102Z,97.12
2022-11-20T20:06:42.253Z,96.68
2022-11-20T20:09:12.573Z,95.88
2022-11-20T20:11:41.548Z,94.35
2022-11-20T20:14:17.055Z,95.54
2022-11-20T20:16:46.546Z,96.23
2022-11-20T20:19:16.514Z,96.38
2022-11-20T20:21:44.871Z,97.32
2022-11-20T20:24:13.613Z,97.22
2022-11-20T20:26:41.694Z,96.51
2022-11-20T20:29:09.766Z,96.10
2022-11-20T20:31:37.961Z,95.43
2022-11-20T20:34:06.967Z,95.78
2022-11-20T20:36:34.908Z,95.75
2022-11-20T20:39:05.859Z,96.78
2022-11-20T20:41:35.386Z,96.03
2022-11-20T20:44:02.990Z,96.89
2022-11-20T20:46:31.064Z,96.68
2022-11-20T20:49:00.051Z,95.74
2022-11-20T20:51:28.778Z,96.20
2022-11-20T20:54:02.336Z,96.09
2022-11-20T20:56:54.948Z,95.52
2022-11-20T20:59:23.468Z,95.76
2022-11-20T21:01:51.538Z,95.58
2022-11-20T21:04:20.489Z,96.81
2022-11-20T21:06:49.341Z,98.06
2022-11-20T21:09:17.268Z,97.49
2022-11-20T21:11:44.653Z,97.41
2022-11-20T21:14:12.048Z,96.94
2022-11-20T21:16:39.311Z,97.14
2022-11-20T21:19:06.663Z,97.09
2022-11-20T21:21:33.991Z,97.40
2022-11-20T21:24:01.594Z,97.22
2022-11-20T21:26:29.422Z,98.07
2022-11-20T21:28:57.712Z,97.00
2022-11-20T21:31:27.133Z,96.73
2022-11-20T21:33:56.056Z,97.56
2022-11-20T21:36:26.769Z,98.16
2022-11-20T21:38:57.116Z,97.91
2022-11-20T21:41:27.648Z,98.39
2022-11-20T21:44:29.120Z,98.79
2022-11-20T21:46:44.806Z,98.99
2022-11-20T21:49:12.616Z,98.56
2022-11-20T21:51:39.534Z,98.20
2022-11-20T21:54:06.320Z,97.17
2022-11-20T21:56:33.366Z,96.62
2022-11-20T21:59:00.278Z,96.21
2022-11-20T22:01:29.559Z,96.59
2022-11-20T22:04:01.863Z,95.37
2022-11-20T22:06:34.292Z,95.42
2022-11-20T22:09:02.475Z,95.25
2022-11-20T22:11:29.500Z,96.05
2022-11-20T22:13:56.219Z,95.99
2022-11-20T22:16:25.930Z,96.28
2022-11-20T22:18:59.261Z,96.85
2022-11-20T22:21:34.741Z,96.03
2022-11-20T22:24:03.502Z,96.69
2022-11-20T22:26:38.796Z,97.36
2022-11-20T22:29:12.441Z,96.72
2022-11-20T22:31:39.273Z,97.01
2022-11-20T22:34:06.096Z,98.75
2022-11-20T22:36:32.854Z,98.28
2022-11-20T22:39:02.355Z,99.00
2022-11-20T22:41:30.545Z,98.63
2022-11-20T22:44:02.506Z,98.23
2022-11-20T22:46:32.169Z,97.52
2022-11-20T22:49:01.469Z,97.44
2022-11-20T22:51:31.136Z,97.84
2022-11-20T22:53:58.063Z,96.61
2022-11-20T22:56:25.667Z,96.62
2022-11-20T22:58:53.962Z,98.20
2022-11-20T23:01:28.303Z,98.68
2022-11-20T23:03:57.999Z,97.05
2022-11-20T23:06:25.859Z,96.84
2022-11-20T23:08:53.558Z,97.66
2022-11-20T23:11:26.327Z,97.73
2022-11-20T23:13:56.530Z,98.68
2022-11-20T23:16:24.319Z,97.92
2022-11-20T23:19:03.299Z,98.06
2022-11-20T23:21:30.150Z,98.03
2022-11-20T23:23:58.640Z,98.44
2022-11-20T23:26:28.952Z,98.46
2022-11-20T23:28:57.111Z,98.76
2022-11-20T23:31:25.019Z,97.67
2022-11-20T23:33:51.892Z,97.66
2022-11-20T23:36:18.743Z,98.75
2022-11-20T23:38:45.521Z,96.41
2022-11-20T23:41:13.706Z,97.64
2022-11-20T23:43:41.063Z,97.99
2022-11-20T23:46:11.442Z,97.95
2022-11-20T23:48:40.750Z,97.70
2022-11-20T23:51:07.654Z,96.77
2022-11-20T23:53:35.225Z,96.27
2022-11-20T23:56:04.547Z,96.84
2022-11-20T23:58:35.160Z,96.21
